sensor_id;sensor_type;location;lat;lon;timestamp;temperature;humidity
69009;SHT31;56065;52.472;13.380;2023-05-28T00:00:08;14.51;64.44
69009;SHT31;56065;52.472;13.380;2023-05-28T00:02:35;14.48;64.67
69009;SHT31;56065;52.472;13.380;2023-05-28T00:05:00;14.46;64.83
69009;SHT31;56065;52.472;13.380;2023-05-28T00:07:26;14.40;64.54
69009;SHT31;56065;52.472;13.380;2023-05-28T00:09:54;14.38;64.26
69009;SHT31;56065;52.472;13.380;2023-05-28T00:12:19;14.34;65.06
69009;SHT31;56065;52.472;13.380;2023-05-28T00:14:45;14.29;65.07
69009;SHT31;56065;52.472;13.380;2023-05-28T00:17:12;14.27;65.06
69009;SHT31;56065;52.472;13.380;2023-05-28T00:19:37;14.22;65.14
69009;SHT31;56065;52.472;13.380;2023-05-28T00:22:03;14.20;65.22
69009;SHT31;56065;52.472;13.380;2023-05-28T00:24:28;14.20;65.16
69009;SHT31;56065;52.472;13.380;2023-05-28T00:26:53;14.19;65.70
69009;SHT31;56065;52.472;13.380;2023-05-28T00:29:19;14.16;65.63
69009;SHT31;56065;52.472;13.380;2023-05-28T00:35:07;14.10;66.20
69009;SHT31;56065;52.472;13.380;2023-05-28T00:40:54;13.95;66.63
69009;SHT31;56065;52.472;13.380;2023-05-28T00:43:20;13.90;67.01
69009;SHT31;56065;52.472;13.380;2023-05-28T00:45:47;13.90;66.85
69009;SHT31;56065;52.472;13.380;2023-05-28T00:48:13;13.85;66.63
69009;SHT31;56065;52.472;13.380;2023-05-28T00:50:39;13.82;66.86
69009;SHT31;56065;52.472;13.380;2023-05-28T00:53:05;13.76;67.16
69009;SHT31;56065;52.472;13.380;2023-05-28T00:55:31;13.75;67.43
69009;SHT31;56065;52.472;13.380;2023-05-28T00:57:57;13.74;67.41
69009;SHT31;56065;52.472;13.380;2023-05-28T01:00:30;13.75;67.05
69009;SHT31;56065;52.472;13.380;2023-05-28T01:02:56;13.71;66.89
69009;SHT31;56065;52.472;13.380;2023-05-28T01:05:21;13.65;67.32
69009;SHT31;56065;52.472;13.380;2023-05-28T01:07:47;13.64;67.78
69009;SHT31;56065;52.472;13.380;2023-05-28T01:10:13;13.58;67.82
69009;SHT31;56065;52.472;13.380;2023-05-28T01:12:39;13.53;67.72
69009;SHT31;56065;52.472;13.380;2023-05-28T01:15:08;13.51;68.34
69009;SHT31;56065;52.472;13.380;2023-05-28T01:17:34;13.47;68.51
69009;SHT31;56065;52.472;13.380;2023-05-28T01:20:00;13.43;68.55
69009;SHT31;56065;52.472;13.380;2023-05-28T01:22:37;13.43;68.13
69009;SHT31;56065;52.472;13.380;2023-05-28T01:25:04;13.40;68.22
69009;SHT31;56065;52.472;13.380;2023-05-28T01:27:40;13.37;68.35
69009;SHT31;56065;52.472;13.380;2023-05-28T01:30:09;13.31;68.65
69009;SHT31;56065;52.472;13.380;2023-05-28T01:32:37;13.28;69.00
69009;SHT31;56065;52.472;13.380;2023-05-28T01:35:04;13.24;69.27
69009;SHT31;56065;52.472;13.380;2023-05-28T01:37:31;13.23;69.26
69009;SHT31;56065;52.472;13.380;2023-05-28T01:39:59;13.21;69.29
69009;SHT31;56065;52.472;13.380;2023-05-28T01:42:27;13.18;69.40
69009;SHT31;56065;52.472;13.380;2023-05-28T01:44:53;13.17;69.35
69009;SHT31;56065;52.472;13.380;2023-05-28T01:47:19;13.14;69.17
69009;SHT31;56065;52.472;13.380;2023-05-28T01:49:45;13.13;69.35
69009;SHT31;56065;52.472;13.380;2023-05-28T01:52:13;13.10;69.87
69009;SHT31;56065;52.472;13.380;2023-05-28T01:54:38;13.07;69.65
69009;SHT31;56065;52.472;13.380;2023-05-28T01:57:04;13.06;69.65
69009;SHT31;56065;52.472;13.380;2023-05-28T01:59:30;12.99;69.71
69009;SHT31;56065;52.472;13.380;2023-05-28T02:01:55;12.94;70.31
69009;SHT31;56065;52.472;13.380;2023-05-28T02:04:20;12.94;70.15
69009;SHT31;56065;52.472;13.380;2023-05-28T02:06:46;12.92;70.39
69009;SHT31;56065;52.472;13.380;2023-05-28T02:09:11;12.89;70.20
69009;SHT31;56065;52.472;13.380;2023-05-28T02:11:37;12.89;70.21
69009;SHT31;56065;52.472;13.380;2023-05-28T02:14:02;12.84;70.26
69009;SHT31;56065;52.472;13.380;2023-05-28T02:16:30;12.82;70.76
69009;SHT31;56065;52.472;13.380;2023-05-28T02:18:55;12.80;70.95
69009;SHT31;56065;52.472;13.380;2023-05-28T02:21:20;12.77;71.33
69009;SHT31;56065;52.472;13.380;2023-05-28T02:23:48;12.77;71.24
69009;SHT31;56065;52.472;13.380;2023-05-28T02:26:13;12.73;71.13
69009;SHT31;56065;52.472;13.380;2023-05-28T02:28:40;12.70;71.50
69009;SHT31;56065;52.472;13.380;2023-05-28T02:31:08;12.70;71.53
69009;SHT31;56065;52.472;13.380;2023-05-28T02:33:34;12.67;71.79
69009;SHT31;56065;52.472;13.380;2023-05-28T02:35:59;12.66;71.92
69009;SHT31;56065;52.472;13.380;2023-05-28T02:38:24;12.66;71.83
69009;SHT31;56065;52.472;13.380;2023-05-28T02:40:50;12.59;72.03
69009;SHT31;56065;52.472;13.380;2023-05-28T02:43:15;12.63;72.00
69009;SHT31;56065;52.472;13.380;2023-05-28T02:45:40;12.60;72.11
69009;SHT31;56065;52.472;13.380;2023-05-28T02:48:06;12.57;72.30
69009;SHT31;56065;52.472;13.380;2023-05-28T02:50:32;12.55;72.08
69009;SHT31;56065;52.472;13.380;2023-05-28T02:52:57;12.49;72.34
69009;SHT31;56065;52.472;13.380;2023-05-28T02:55:22;12.46;72.46
69009;SHT31;56065;52.472;13.380;2023-05-28T02:57:48;12.45;72.65
69009;SHT31;56065;52.472;13.380;2023-05-28T03:00:13;12.43;72.54
69009;SHT31;56065;52.472;13.380;2023-05-28T03:02:39;12.41;72.46
69009;SHT31;56065;52.472;13.380;2023-05-28T03:05:04;12.36;72.93
69009;SHT31;56065;52.472;13.380;2023-05-28T03:07:30;12.35;72.85
69009;SHT31;56065;52.472;13.380;2023-05-28T03:09:56;12.35;72.76
69009;SHT31;56065;52.472;13.380;2023-05-28T03:12:22;12.32;73.01
69009;SHT31;56065;52.472;13.380;2023-05-28T03:14:47;12.32;73.04
69009;SHT31;56065;52.472;13.380;2023-05-28T03:17:13;12.28;73.21
69009;SHT31;56065;52.472;13.380;2023-05-28T03:19:38;12.25;73.51
69009;SHT31;56065;52.472;13.380;2023-05-28T03:22:03;12.29;73.44
69009;SHT31;56065;52.472;13.380;2023-05-28T03:24:29;12.29;73.72
69009;SHT31;56065;52.472;13.380;2023-05-28T03:26:56;12.31;73.50
69009;SHT31;56065;52.472;13.380;2023-05-28T03:29:22;12.34;73.62
69009;SHT31;56065;52.472;13.380;2023-05-28T03:31:47;12.35;73.41
69009;SHT31;56065;52.472;13.380;2023-05-28T03:34:13;12.31;73.26
69009;SHT31;56065;52.472;13.380;2023-05-28T03:36:38;12.34;73.06
69009;SHT31;56065;52.472;13.380;2023-05-28T03:39:08;12.35;73.47
69009;SHT31;56065;52.472;13.380;2023-05-28T03:41:34;12.41;73.33
69009;SHT31;56065;52.472;13.380;2023-05-28T03:44:00;12.45;73.34
69009;SHT31;56065;52.472;13.380;2023-05-28T03:46:25;12.48;73.25
69009;SHT31;56065;52.472;13.380;2023-05-28T03:48:51;12.55;73.28
69009;SHT31;56065;52.472;13.380;2023-05-28T03:51:16;12.57;73.24
69009;SHT31;56065;52.472;13.380;2023-05-28T03:53:41;12.59;73.64
69009;SHT31;56065;52.472;13.380;2023-05-28T03:56:07;12.63;73.66
69009;SHT31;56065;52.472;13.380;2023-05-28T03:58:32;12.69;73.25
69009;SHT31;56065;52.472;13.380;2023-05-28T04:00:57;12.72;73.21
69009;SHT31;56065;52.472;13.380;2023-05-28T04:03:23;12.73;73.33
69009;SHT31;56065;52.472;13.380;2023-05-28T04:05:48;12.79;73.28
69009;SHT31;56065;52.472;13.380;2023-05-28T04:08:13;12.84;73.30
69009;SHT31;56065;52.472;13.380;2023-05-28T04:10:39;12.90;73.35
69009;SHT31;56065;52.472;13.380;2023-05-28T04:13:05;12.94;73.43
69009;SHT31;56065;52.472;13.380;2023-05-28T04:15:30;12.97;73.50
69009;SHT31;56065;52.472;13.380;2023-05-28T04:17:56;13.02;73.21
69009;SHT31;56065;52.472;13.380;2023-05-28T04:20:21;13.03;73.61
69009;SHT31;56065;52.472;13.380;2023-05-28T04:22:47;13.11;73.41
69009;SHT31;56065;52.472;13.380;2023-05-28T04:25:12;13.18;73.15
69009;SHT31;56065;52.472;13.380;2023-05-28T04:27:38;13.30;72.85
69009;SHT31;56065;52.472;13.380;2023-05-28T04:30:07;13.35;72.59
69009;SHT31;56065;52.472;13.380;2023-05-28T04:32:33;13.44;71.98
69009;SHT31;56065;52.472;13.380;2023-05-28T04:34:58;13.50;72.01
69009;SHT31;56065;52.472;13.380;2023-05-28T04:37:28;13.59;70.81
69009;SHT31;56065;52.472;13.380;2023-05-28T04:39:55;13.69;71.07
69009;SHT31;56065;52.472;13.380;2023-05-28T04:42:20;13.79;70.90
69009;SHT31;56065;52.472;13.380;2023-05-28T04:44:45;13.92;70.88
69009;SHT31;56065;52.472;13.380;2023-05-28T04:47:11;14.02;70.26
69009;SHT31;56065;52.472;13.380;2023-05-28T04:49:39;14.15;69.79
69009;SHT31;56065;52.472;13.380;2023-05-28T04:52:06;14.19;69.20
69009;SHT31;56065;52.472;13.380;2023-05-28T04:54:31;14.24;68.66
69009;SHT31;56065;52.472;13.380;2023-05-28T04:56:56;14.27;68.24
69009;SHT31;56065;52.472;13.380;2023-05-28T04:59:22;14.38;68.39
69009;SHT31;56065;52.472;13.380;2023-05-28T05:01:47;14.46;67.60
69009;SHT31;56065;52.472;13.380;2023-05-28T05:04:12;14.56;67.45
69009;SHT31;56065;52.472;13.380;2023-05-28T05:06:38;14.65;67.10
69009;SHT31;56065;52.472;13.380;2023-05-28T05:09:03;14.71;67.07
69009;SHT31;56065;52.472;13.380;2023-05-28T05:11:30;14.74;66.52
69009;SHT31;56065;52.472;13.380;2023-05-28T05:13:56;14.80;66.80
69009;SHT31;56065;52.472;13.380;2023-05-28T05:16:21;14.89;66.47
69009;SHT31;56065;52.472;13.380;2023-05-28T05:18:46;15.02;66.33
69009;SHT31;56065;52.472;13.380;2023-05-28T05:21:12;15.12;66.60
69009;SHT31;56065;52.472;13.380;2023-05-28T05:23:39;15.28;66.10
69009;SHT31;56065;52.472;13.380;2023-05-28T05:26:07;15.40;65.58
69009;SHT31;56065;52.472;13.380;2023-05-28T05:28:35;15.53;65.78
69009;SHT31;56065;52.472;13.380;2023-05-28T05:31:00;15.67;65.68
69009;SHT31;56065;52.472;13.380;2023-05-28T05:33:26;15.71;64.87
69009;SHT31;56065;52.472;13.380;2023-05-28T05:35:51;15.76;64.67
69009;SHT31;56065;52.472;13.380;2023-05-28T05:38:17;15.84;64.61
69009;SHT31;56065;52.472;13.380;2023-05-28T05:40:43;15.98;64.63
69009;SHT31;56065;52.472;13.380;2023-05-28T05:43:08;16.14;63.83
69009;SHT31;56065;52.472;13.380;2023-05-28T05:45:34;16.22;63.78
69009;SHT31;56065;52.472;13.380;2023-05-28T05:47:59;16.35;63.31
69009;SHT31;56065;52.472;13.380;2023-05-28T05:50:25;16.52;63.46
69009;SHT31;56065;52.472;13.380;2023-05-28T05:52:50;16.71;62.61
69009;SHT31;56065;52.472;13.380;2023-05-28T05:55:15;16.87;61.71
69009;SHT31;56065;52.472;13.380;2023-05-28T05:57:41;17.09;61.92
69009;SHT31;56065;52.472;13.380;2023-05-28T06:00:07;17.27;61.94
69009;SHT31;56065;52.472;13.380;2023-05-28T06:02:34;17.41;60.91
69009;SHT31;56065;52.472;13.380;2023-05-28T06:05:01;17.45;60.94
69009;SHT31;56065;52.472;13.380;2023-05-28T06:07:28;17.61;60.62
69009;SHT31;56065;52.472;13.380;2023-05-28T06:09:53;17.75;61.55
69009;SHT31;56065;52.472;13.380;2023-05-28T06:12:18;18.25;60.17
69009;SHT31;56065;52.472;13.380;2023-05-28T06:14:44;19.17;59.24
69009;SHT31;56065;52.472;13.380;2023-05-28T06:17:10;20.30;57.97
69009;SHT31;56065;52.472;13.380;2023-05-28T06:19:35;21.16;55.61
69009;SHT31;56065;52.472;13.380;2023-05-28T06:22:00;21.85;50.50
69009;SHT31;56065;52.472;13.380;2023-05-28T06:24:26;22.75;51.23
69009;SHT31;56065;52.472;13.380;2023-05-28T06:26:51;23.57;49.06
69009;SHT31;56065;52.472;13.380;2023-05-28T06:29:17;24.47;48.77
69009;SHT31;56065;52.472;13.380;2023-05-28T06:31:42;25.05;47.69
69009;SHT31;56065;52.472;13.380;2023-05-28T06:34:07;25.52;47.12
69009;SHT31;56065;52.472;13.380;2023-05-28T06:36:32;26.06;46.56
69009;SHT31;56065;52.472;13.380;2023-05-28T06:38:58;26.33;45.03
69009;SHT31;56065;52.472;13.380;2023-05-28T06:41:23;27.09;43.87
69009;SHT31;56065;52.472;13.380;2023-05-28T06:43:49;27.29;43.60
69009;SHT31;56065;52.472;13.380;2023-05-28T06:46:14;27.57;42.98
69009;SHT31;56065;52.472;13.380;2023-05-28T06:48:40;27.78;41.62
69009;SHT31;56065;52.472;13.380;2023-05-28T06:51:06;28.04;42.63
69009;SHT31;56065;52.472;13.380;2023-05-28T06:53:32;28.14;40.35
69009;SHT31;56065;52.472;13.380;2023-05-28T06:55:57;28.41;41.83
69009;SHT31;56065;52.472;13.380;2023-05-28T06:58:23;28.84;41.19
69009;SHT31;56065;52.472;13.380;2023-05-28T07:00:48;29.21;39.60
69009;SHT31;56065;52.472;13.380;2023-05-28T07:03:14;29.27;38.80
69009;SHT31;56065;52.472;13.380;2023-05-28T07:05:39;29.81;39.10
69009;SHT31;56065;52.472;13.380;2023-05-28T07:08:05;30.32;39.36
69009;SHT31;56065;52.472;13.380;2023-05-28T07:10:30;30.78;37.97
69009;SHT31;56065;52.472;13.380;2023-05-28T07:12:56;30.96;36.58
69009;SHT31;56065;52.472;13.380;2023-05-28T07:15:21;31.07;35.49
69009;SHT31;56065;52.472;13.380;2023-05-28T07:17:47;31.18;36.02
69009;SHT31;56065;52.472;13.380;2023-05-28T07:20:12;31.56;34.61
69009;SHT31;56065;52.472;13.380;2023-05-28T07:22:38;31.42;34.58
69009;SHT31;56065;52.472;13.380;2023-05-28T07:25:04;31.56;35.41
69009;SHT31;56065;52.472;13.380;2023-05-28T07:27:30;31.53;34.82
69009;SHT31;56065;52.472;13.380;2023-05-28T07:29:56;31.65;34.73
69009;SHT31;56065;52.472;13.380;2023-05-28T07:32:21;32.02;34.99
69009;SHT31;56065;52.472;13.380;2023-05-28T07:34:47;32.41;35.07
69009;SHT31;56065;52.472;13.380;2023-05-28T07:37:12;32.50;34.63
69009;SHT31;56065;52.472;13.380;2023-05-28T07:39:37;33.19;33.91
69009;SHT31;56065;52.472;13.380;2023-05-28T07:42:03;33.01;33.03
69009;SHT31;56065;52.472;13.380;2023-05-28T07:44:28;33.71;33.08
69009;SHT31;56065;52.472;13.380;2023-05-28T07:46:53;34.01;32.21
69009;SHT31;56065;52.472;13.380;2023-05-28T07:49:19;34.35;31.82
69009;SHT31;56065;52.472;13.380;2023-05-28T07:51:46;34.95;31.23
69009;SHT31;56065;52.472;13.380;2023-05-28T07:54:12;35.31;31.01
69009;SHT31;56065;52.472;13.380;2023-05-28T07:56:37;35.14;30.34
69009;SHT31;56065;52.472;13.380;2023-05-28T07:59:04;35.30;30.35
69009;SHT31;56065;52.472;13.380;2023-05-28T08:01:30;34.93;29.95
69009;SHT31;56065;52.472;13.380;2023-05-28T08:03:55;35.33;28.71
69009;SHT31;56065;52.472;13.380;2023-05-28T08:06:21;34.69;29.40
69009;SHT31;56065;52.472;13.380;2023-05-28T08:08:46;35.16;29.45
69009;SHT31;56065;52.472;13.380;2023-05-28T08:11:12;35.29;29.34
69009;SHT31;56065;52.472;13.380;2023-05-28T08:13:39;35.20;28.64
69009;SHT31;56065;52.472;13.380;2023-05-28T08:16:05;35.10;29.58
69009;SHT31;56065;52.472;13.380;2023-05-28T08:18:30;35.26;30.67
69009;SHT31;56065;52.472;13.380;2023-05-28T08:20:55;35.20;29.70
69009;SHT31;56065;52.472;13.380;2023-05-28T08:23:21;35.98;29.62
69009;SHT31;56065;52.472;13.380;2023-05-28T08:25:46;35.95;28.78
69009;SHT31;56065;52.472;13.380;2023-05-28T08:28:12;36.29;28.70
69009;SHT31;56065;52.472;13.380;2023-05-28T08:30:37;36.46;27.77
69009;SHT31;56065;52.472;13.380;2023-05-28T08:33:03;36.63;27.63
69009;SHT31;56065;52.472;13.380;2023-05-28T08:35:28;36.05;28.15
69009;SHT31;56065;52.472;13.380;2023-05-28T08:37:53;36.73;28.18
69009;SHT31;56065;52.472;13.380;2023-05-28T08:40:19;36.49;27.65
69009;SHT31;56065;52.472;13.380;2023-05-28T08:42:45;36.53;26.97
69009;SHT31;56065;52.472;13.380;2023-05-28T08:45:10;35.41;27.49
69009;SHT31;56065;52.472;13.380;2023-05-28T08:47:36;36.28;28.14
69009;SHT31;56065;52.472;13.380;2023-05-28T08:50:05;36.56;27.50
69009;SHT31;56065;52.472;13.380;2023-05-28T08:52:32;37.18;28.09
69009;SHT31;56065;52.472;13.380;2023-05-28T08:54:58;36.99;27.44
69009;SHT31;56065;52.472;13.380;2023-05-28T08:57:25;37.20;27.37
69009;SHT31;56065;52.472;13.380;2023-05-28T08:59:50;37.62;27.49
69009;SHT31;56065;52.472;13.380;2023-05-28T09:02:20;37.96;26.28
69009;SHT31;56065;52.472;13.380;2023-05-28T09:04:45;37.86;26.88
69009;SHT31;56065;52.472;13.380;2023-05-28T09:07:12;38.01;27.47
69009;SHT31;56065;52.472;13.380;2023-05-28T09:09:37;38.11;26.84
69009;SHT31;56065;52.472;13.380;2023-05-28T09:12:04;38.13;27.92
69009;SHT31;56065;52.472;13.380;2023-05-28T09:14:40;37.92;26.00
69009;SHT31;56065;52.472;13.380;2023-05-28T09:17:06;38.04;26.89
69009;SHT31;56065;52.472;13.380;2023-05-28T09:19:35;38.29;26.17
69009;SHT31;56065;52.472;13.380;2023-05-28T09:22:02;38.67;25.75
69009;SHT31;56065;52.472;13.380;2023-05-28T09:24:29;38.56;26.28
69009;SHT31;56065;52.472;13.380;2023-05-28T09:26:56;38.77;25.89
69009;SHT31;56065;52.472;13.380;2023-05-28T09:29:23;38.80;26.06
69009;SHT31;56065;52.472;13.380;2023-05-28T09:31:59;39.19;25.57
69009;SHT31;56065;52.472;13.380;2023-05-28T09:34:31;38.88;26.74
69009;SHT31;56065;52.472;13.380;2023-05-28T09:37:04;39.46;26.53
69009;SHT31;56065;52.472;13.380;2023-05-28T09:39:30;39.15;25.90
69009;SHT31;56065;52.472;13.380;2023-05-28T09:42:03;39.70;25.73
69009;SHT31;56065;52.472;13.380;2023-05-28T09:44:30;39.90;26.27
69009;SHT31;56065;52.472;13.380;2023-05-28T09:46:56;39.79;26.17
69009;SHT31;56065;52.472;13.380;2023-05-28T09:49:22;39.95;25.16
69009;SHT31;56065;52.472;13.380;2023-05-28T09:51:51;40.15;25.42
69009;SHT31;56065;52.472;13.380;2023-05-28T09:54:17;40.02;26.12
69009;SHT31;56065;52.472;13.380;2023-05-28T09:56:47;40.06;26.25
69009;SHT31;56065;52.472;13.380;2023-05-28T09:59:12;40.10;26.10
69009;SHT31;56065;52.472;13.380;2023-05-28T10:01:40;40.33;26.09
69009;SHT31;56065;52.472;13.380;2023-05-28T10:04:11;40.73;26.00
69009;SHT31;56065;52.472;13.380;2023-05-28T10:06:40;41.01;24.67
69009;SHT31;56065;52.472;13.380;2023-05-28T10:09:09;40.81;25.00
69009;SHT31;56065;52.472;13.380;2023-05-28T10:11:42;40.67;23.84
69009;SHT31;56065;52.472;13.380;2023-05-28T10:14:09;39.72;24.30
69009;SHT31;56065;52.472;13.380;2023-05-28T10:16:35;39.59;24.82
69009;SHT31;56065;52.472;13.380;2023-05-28T10:19:01;39.79;26.58
69009;SHT31;56065;52.472;13.380;2023-05-28T10:21:27;39.55;25.41
69009;SHT31;56065;52.472;13.380;2023-05-28T10:23:52;38.33;24.96
69009;SHT31;56065;52.472;13.380;2023-05-28T10:26:18;38.91;25.31
69009;SHT31;56065;52.472;13.380;2023-05-28T10:28:44;38.68;25.37
69009;SHT31;56065;52.472;13.380;2023-05-28T10:31:10;38.84;25.23
69009;SHT31;56065;52.472;13.380;2023-05-28T10:33:42;38.87;24.69
69009;SHT31;56065;52.472;13.380;2023-05-28T10:36:12;38.94;26.24
69009;SHT31;56065;52.472;13.380;2023-05-28T10:38:50;38.81;24.79
69009;SHT31;56065;52.472;13.380;2023-05-28T10:41:21;38.91;24.95
69009;SHT31;56065;52.472;13.380;2023-05-28T10:43:48;39.11;25.95
69009;SHT31;56065;52.472;13.380;2023-05-28T10:46:36;38.77;25.62
69009;SHT31;56065;52.472;13.380;2023-05-28T10:52:06;39.32;24.94
69009;SHT31;56065;52.472;13.380;2023-05-28T10:57:09;39.25;25.79
69009;SHT31;56065;52.472;13.380;2023-05-28T10:59:44;39.62;25.79
69009;SHT31;56065;52.472;13.380;2023-05-28T11:02:11;40.10;25.34
69009;SHT31;56065;52.472;13.380;2023-05-28T11:04:37;40.27;25.53
69009;SHT31;56065;52.472;13.380;2023-05-28T11:07:04;39.45;24.78
69009;SHT31;56065;52.472;13.380;2023-05-28T11:09:30;39.85;28.32
69009;SHT31;56065;52.472;13.380;2023-05-28T11:11:59;40.06;26.51
69009;SHT31;56065;52.472;13.380;2023-05-28T11:14:29;40.55;25.14
69009;SHT31;56065;52.472;13.380;2023-05-28T11:16:55;40.43;25.20
69009;SHT31;56065;52.472;13.380;2023-05-28T11:19:20;40.12;25.99
69009;SHT31;56065;52.472;13.380;2023-05-28T11:21:53;39.76;26.62
69009;SHT31;56065;52.472;13.380;2023-05-28T11:24:18;39.89;27.17
69009;SHT31;56065;52.472;13.380;2023-05-28T11:26:44;40.00;25.26
69009;SHT31;56065;52.472;13.380;2023-05-28T11:29:09;39.62;24.21
69009;SHT31;56065;52.472;13.380;2023-05-28T11:31:39;38.86;29.69
69009;SHT31;56065;52.472;13.380;2023-05-28T11:34:05;38.97;26.14
69009;SHT31;56065;52.472;13.380;2023-05-28T11:36:40;39.54;25.00
69009;SHT31;56065;52.472;13.380;2023-05-28T11:39:06;39.07;26.93
69009;SHT31;56065;52.472;13.380;2023-05-28T11:41:31;39.34;25.23
69009;SHT31;56065;52.472;13.380;2023-05-28T11:43:57;39.18;28.48
69009;SHT31;56065;52.472;13.380;2023-05-28T11:46:22;38.71;25.36
69009;SHT31;56065;52.472;13.380;2023-05-28T11:48:48;38.98;25.18
69009;SHT31;56065;52.472;13.380;2023-05-28T11:51:13;38.26;28.09
69009;SHT31;56065;52.472;13.380;2023-05-28T11:53:39;38.01;27.96
69009;SHT31;56065;52.472;13.380;2023-05-28T11:56:06;37.54;26.85
69009;SHT31;56065;52.472;13.380;2023-05-28T11:58:32;38.27;28.03
69009;SHT31;56065;52.472;13.380;2023-05-28T12:00:58;38.59;25.64
69009;SHT31;56065;52.472;13.380;2023-05-28T12:03:26;38.53;26.46
69009;SHT31;56065;52.472;13.380;2023-05-28T12:05:52;37.96;29.64
69009;SHT31;56065;52.472;13.380;2023-05-28T12:08:18;38.33;26.20
69009;SHT31;56065;52.472;13.380;2023-05-28T12:10:44;38.13;26.88
69009;SHT31;56065;52.472;13.380;2023-05-28T12:13:12;37.74;28.82
69009;SHT31;56065;52.472;13.380;2023-05-28T12:15:37;38.01;30.72
69009;SHT31;56065;52.472;13.380;2023-05-28T12:18:03;38.36;29.24
69009;SHT31;56065;52.472;13.380;2023-05-28T12:23:06;38.77;28.86
69009;SHT31;56065;52.472;13.380;2023-05-28T12:28:10;39.31;25.46
69009;SHT31;56065;52.472;13.380;2023-05-28T12:30:40;38.91;26.34
69009;SHT31;56065;52.472;13.380;2023-05-28T12:33:06;38.55;26.83
69009;SHT31;56065;52.472;13.380;2023-05-28T12:35:31;38.50;25.72
69009;SHT31;56065;52.472;13.380;2023-05-28T12:37:57;37.77;27.09
69009;SHT31;56065;52.472;13.380;2023-05-28T12:40:22;37.51;27.19
69009;SHT31;56065;52.472;13.380;2023-05-28T12:42:48;37.13;27.20
69009;SHT31;56065;52.472;13.380;2023-05-28T12:45:13;37.61;30.84
69009;SHT31;56065;52.472;13.380;2023-05-28T12:47:39;37.92;31.09
69009;SHT31;56065;52.472;13.380;2023-05-28T12:50:04;38.25;29.84
69009;SHT31;56065;52.472;13.380;2023-05-28T12:52:31;38.59;25.78
69009;SHT31;56065;52.472;13.380;2023-05-28T12:55:02;38.12;27.43
69009;SHT31;56065;52.472;13.380;2023-05-28T12:57:28;37.72;28.84
69009;SHT31;56065;52.472;13.380;2023-05-28T12:59:53;37.45;27.81
69009;SHT31;56065;52.472;13.380;2023-05-28T13:02:19;37.61;26.32
69009;SHT31;56065;52.472;13.380;2023-05-28T13:04:44;37.41;30.48
69009;SHT31;56065;52.472;13.380;2023-05-28T13:07:09;37.14;31.80
69009;SHT31;56065;52.472;13.380;2023-05-28T13:09:35;37.27;31.67
69009;SHT31;56065;52.472;13.380;2023-05-28T13:12:01;37.27;27.13
69009;SHT31;56065;52.472;13.380;2023-05-28T13:14:28;36.99;28.85
69009;SHT31;56065;52.472;13.380;2023-05-28T13:16:53;36.62;28.51
69009;SHT31;56065;52.472;13.380;2023-05-28T13:19:20;36.46;28.55
69009;SHT31;56065;52.472;13.380;2023-05-28T13:21:46;36.46;31.61
69009;SHT31;56065;52.472;13.380;2023-05-28T13:24:11;36.69;31.66
69009;SHT31;56065;52.472;13.380;2023-05-28T13:26:36;36.93;27.00
69009;SHT31;56065;52.472;13.380;2023-05-28T13:29:02;36.48;26.30
69009;SHT31;56065;52.472;13.380;2023-05-28T13:31:29;35.87;26.63
69009;SHT31;56065;52.472;13.380;2023-05-28T13:33:55;35.61;26.98
69009;SHT31;56065;52.472;13.380;2023-05-28T13:36:20;35.10;34.23
69009;SHT31;56065;52.472;13.380;2023-05-28T13:38:45;35.55;28.28
69009;SHT31;56065;52.472;13.380;2023-05-28T13:41:13;35.51;29.04
69009;SHT31;56065;52.472;13.380;2023-05-28T13:43:39;35.58;28.01
69009;SHT31;56065;52.472;13.380;2023-05-28T13:46:05;35.55;27.52
69009;SHT31;56065;52.472;13.380;2023-05-28T13:48:30;35.49;27.88
69009;SHT31;56065;52.472;13.380;2023-05-28T13:50:56;35.41;28.26
69009;SHT31;56065;52.472;13.380;2023-05-28T13:53:21;35.47;28.22
69009;SHT31;56065;52.472;13.380;2023-05-28T13:55:46;35.54;31.89
69009;SHT31;56065;52.472;13.380;2023-05-28T13:58:12;35.78;29.06
69009;SHT31;56065;52.472;13.380;2023-05-28T14:00:39;35.95;28.35
69009;SHT31;56065;52.472;13.380;2023-05-28T14:03:05;35.99;29.50
69009;SHT31;56065;52.472;13.380;2023-05-28T14:05:30;35.82;29.10
69009;SHT31;56065;52.472;13.380;2023-05-28T14:07:56;35.62;30.66
69009;SHT31;56065;52.472;13.380;2023-05-28T14:10:21;35.19;28.68
69009;SHT31;56065;52.472;13.380;2023-05-28T14:12:50;35.19;31.59
69009;SHT31;56065;52.472;13.380;2023-05-28T14:15:16;34.98;29.97
69009;SHT31;56065;52.472;13.380;2023-05-28T14:17:41;35.00;28.11
69009;SHT31;56065;52.472;13.380;2023-05-28T14:20:07;34.72;31.76
69009;SHT31;56065;52.472;13.380;2023-05-28T14:22:33;34.78;27.96
69009;SHT31;56065;52.472;13.380;2023-05-28T14:24:59;34.25;28.27
69009;SHT31;56065;52.472;13.380;2023-05-28T14:27:24;33.81;31.55
69009;SHT31;56065;52.472;13.380;2023-05-28T14:29:49;33.86;30.25
69009;SHT31;56065;52.472;13.380;2023-05-28T14:32:15;33.96;29.31
69009;SHT31;56065;52.472;13.380;2023-05-28T14:34:40;33.76;33.57
69009;SHT31;56065;52.472;13.380;2023-05-28T14:37:06;33.54;30.29
69009;SHT31;56065;52.472;13.380;2023-05-28T14:39:31;33.34;31.77
69009;SHT31;56065;52.472;13.380;2023-05-28T14:41:57;33.52;32.51
69009;SHT31;56065;52.472;13.380;2023-05-28T14:44:22;33.62;30.16
69009;SHT31;56065;52.472;13.380;2023-05-28T14:46:47;33.43;29.33
69009;SHT31;56065;52.472;13.380;2023-05-28T14:49:13;33.25;28.28
69009;SHT31;56065;52.472;13.380;2023-05-28T14:51:38;32.95;29.94
69009;SHT31;56065;52.472;13.380;2023-05-28T14:54:04;32.88;28.56
69009;SHT31;56065;52.472;13.380;2023-05-28T14:56:29;32.67;29.66
69009;SHT31;56065;52.472;13.380;2023-05-28T14:58:55;32.35;32.70
69009;SHT31;56065;52.472;13.380;2023-05-28T15:01:20;32.35;31.39
69009;SHT31;56065;52.472;13.380;2023-05-28T15:03:46;32.38;30.29
69009;SHT31;56065;52.472;13.380;2023-05-28T15:06:11;32.12;31.55
69009;SHT31;56065;52.472;13.380;2023-05-28T15:08:37;31.86;32.97
69009;SHT31;56065;52.472;13.380;2023-05-28T15:11:02;31.82;32.11
69009;SHT31;56065;52.472;13.380;2023-05-28T15:13:28;31.75;31.33
69009;SHT31;56065;52.472;13.380;2023-05-28T15:15:53;31.61;30.73
69009;SHT31;56065;52.472;13.380;2023-05-28T15:18:19;31.38;30.01
69009;SHT31;56065;52.472;13.380;2023-05-28T15:20:44;31.16;33.95
69009;SHT31;56065;52.472;13.380;2023-05-28T15:23:10;31.15;32.36
69009;SHT31;56065;52.472;13.380;2023-05-28T15:25:36;31.19;32.70